Alexander, Maine
Current Conditions -  °F | °C
As of 9:35 AM on Monday 20 Oct 2014 (Local Time) from KBHB Reporting Station
Few Clouds Few Clouds  
Wind Chill:   Ceiling: Unl
Heat Index:   Visibility: 10mi
Dew Point: -2°   Wind: 12mph
Humidity: 57%   Direction: 290°WNW
Pressure: 29.94"   Gusts: 18mph
Location:  45.0659°N, 67.4987°W
Report Text: KBHB 201335Z AUTO 29010G16KT 10SM FEW039 06/M02 A2994 RMK AO1
Loading
Personal Weather Stations






























Interactive Weather Map
Tropical Storm Tracking
New forecast layout! Learn more

10-Day Weather Forecast

Advertisements
Track Severe Weather on mobile